Time;durP1;ratioP1;P1;durP2;ratioP2;P2;SDS_P1;SDS_P2;PMS_P1;PMS_P2;Temp;Humidity;BMP_temperature;BMP_pressure;BME280_temperature;BME280_humidity;BME280_pressure;Samples;Min_cycle;Max_cycle;Signal;HPM_P1;HPM_P2
2023/03/05 00:08:40;;;;;;;17.00;6.90;;;;;;;-6.47;80.93;99111.13;449138;1254;142673;-66
2023/03/05 00:18:46;;;;;;;16.20;7.60;;;;;;;-6.53;80.69;99104.52;448403;1254;142085;-66
2023/03/05 00:28:52;;;;;;;12.90;7.40;;;;;;;-6.65;80.56;99100.27;448969;1255;143059;-66
2023/03/05 00:38:58;;;;;;;11.30;6.50;;;;;;;-6.77;80.59;99087.18;449132;1254;141752;-66
2023/03/05 00:49:04;;;;;;;8.50;5.40;;;;;;;-6.87;80.83;99073.76;432528;1258;142107;-65
2023/03/05 00:59:10;;;;;;;12.80;5.70;;;;;;;-7.03;80.86;99064.77;445429;1257;140880;-65
2023/03/05 01:09:16;;;;;;;9.70;6.20;;;;;;;-7.17;81.07;99057.79;431948;1259;142932;-65
2023/03/05 01:19:22;;;;;;;9.80;7.10;;;;;;;-7.31;81.10;99046.05;431469;1255;141107;-65
2023/03/05 01:29:27;;;;;;;12.50;6.60;;;;;;;-7.46;81.48;99037.90;440325;1254;143267;-66
2023/03/05 01:39:35;;;;;;;16.00;8.50;;;;;;;-7.55;81.73;99033.48;445834;1254;141772;-66
2023/03/05 01:49:42;;;;;;;15.40;9.40;;;;;;;-7.60;81.94;99024.79;444149;1259;141855;-65
2023/03/05 01:59:50;;;;;;;20.20;12.40;;;;;;;-7.72;82.03;99013.23;433237;1259;152085;-66
2023/03/05 02:09:57;;;;;;;20.30;12.20;;;;;;;-7.86;82.44;99003.19;433303;1259;142845;-67
2023/03/05 02:20:09;;;;;;;18.20;11.10;;;;;;;-8.02;83.05;98991.61;433902;1259;142491;-66
2023/03/05 02:30:16;;;;;;;17.60;11.30;;;;;;;-8.17;83.60;98979.36;433778;1259;143394;-66
2023/03/05 02:40:22;;;;;;;20.40;12.20;;;;;;;-8.24;83.79;98973.05;432539;1254;143517;-66
2023/03/05 02:50:28;;;;;;;22.80;14.40;;;;;;;-8.30;83.88;98963.88;434546;1255;142599;-66
2023/03/05 03:00:35;;;;;;;23.30;15.20;;;;;;;-8.41;84.28;98955.68;434614;1255;143718;-66
2023/03/05 03:10:40;;;;;;;21.80;13.70;;;;;;;-8.51;84.63;98952.27;436938;1254;142855;-66
2023/03/05 03:20:46;;;;;;;21.70;13.80;;;;;;;-8.63;85.03;98964.14;433183;1259;142378;-67
2023/03/05 03:30:52;;;;;;;20.80;11.40;;;;;;;-8.69;85.46;98961.58;434868;1258;142294;-67
2023/03/05 03:40:58;;;;;;;21.80;13.30;;;;;;;-8.74;85.52;98952.23;433107;1259;171781;-66
2023/03/05 03:51:07;;;;;;;20.60;13.00;;;;;;;-8.81;85.54;98943.71;439213;1254;142094;-68
2023/03/05 04:01:13;;;;;;;21.50;13.20;;;;;;;-8.85;85.71;98931.64;433767;1254;144321;-66
2023/03/05 04:11:19;;;;;;;21.30;15.00;;;;;;;-8.82;86.27;98927.93;435429;1254;142457;-67
2023/03/05 04:21:25;;;;;;;24.50;16.10;;;;;;;-8.82;86.30;98917.25;435920;1254;143005;-66
2023/03/05 04:31:31;;;;;;;31.60;19.10;;;;;;;-8.77;86.70;98908.77;434772;1254;142674;-66
2023/03/05 04:41:37;;;;;;;21.20;14.00;;;;;;;-8.61;86.88;98896.10;433266;1254;142034;-66
2023/03/05 04:51:43;;;;;;;27.30;17.00;;;;;;;-8.59;86.95;98889.66;433346;1259;143174;-66
2023/03/05 05:01:49;;;;;;;25.80;17.70;;;;;;;-8.64;87.05;98875.21;436109;1254;143498;-67
2023/03/05 05:11:55;;;;;;;24.20;16.90;;;;;;;-8.69;87.34;98869.77;432860;1257;144425;-67
2023/03/05 05:22:01;;;;;;;24.60;17.40;;;;;;;-8.71;87.58;98859.24;432069;1258;143080;-67
2023/03/05 05:32:08;;;;;;;29.90;20.30;;;;;;;-8.61;88.09;98832.94;436085;1254;142310;-67
2023/03/05 05:42:14;;;;;;;26.00;20.50;;;;;;;-8.10;89.14;98839.05;435537;1254;142351;-68
2023/03/05 05:52:19;;;;;;;30.30;18.80;;;;;;;-7.34;89.21;98846.73;433334;1254;142392;-67
2023/03/05 06:02:26;;;;;;;23.90;15.90;;;;;;;-6.75;89.33;98847.84;434520;1254;141941;-67
2023/03/05 06:12:32;;;;;;;21.20;14.50;;;;;;;-6.38;89.33;98839.27;434154;1254;142336;-68
2023/03/05 06:22:39;;;;;;;20.40;13.60;;;;;;;-6.03;89.56;98827.38;431898;1254;143108;-68
2023/03/05 06:32:44;;;;;;;16.60;11.80;;;;;;;-5.60;89.67;98824.91;432890;1254;142774;-68
2023/03/05 06:42:51;;;;;;;30.60;12.90;;;;;;;-5.15;89.80;98813.46;439537;1254;164005;-67
2023/03/05 06:52:57;;;;;;;17.40;10.20;;;;;;;-4.69;89.63;98802.09;433908;1254;142681;-67
2023/03/05 07:03:03;;;;;;;13.60;7.80;;;;;;;-4.32;89.44;98800.67;436634;1254;141849;-68
2023/03/05 07:13:09;;;;;;;15.70;8.80;;;;;;;-3.98;88.89;98790.20;439975;1254;143529;-67
2023/03/05 07:23:14;;;;;;;18.20;9.10;;;;;;;-3.71;88.53;98784.92;433761;1254;144110;-69
2023/03/05 07:33:20;;;;;;;28.10;14.30;;;;;;;-3.49;88.26;98777.66;432831;1254;142446;-67
2023/03/05 07:43:25;;;;;;;;;;;;;;;-3.24;88.18;98765.02;435471;1258;143853;-66
2023/03/05 07:53:31;;;;;;;17.40;10.70;;;;;;;-2.93;88.11;98755.98;437211;1258;128812;-68
2023/03/05 08:03:38;;;;;;;16.30;8.90;;;;;;;-2.63;87.70;98748.08;442802;1254;141749;-67
2023/03/05 08:13:44;;;;;;;11.40;7.40;;;;;;;-2.38;87.39;98745.43;435686;1254;142532;-67
2023/03/05 08:23:50;;;;;;;10.80;7.90;;;;;;;-2.24;87.48;98737.04;433003;1258;142592;-68
2023/03/05 08:33:57;;;;;;;16.80;9.00;;;;;;;-2.01;87.43;98731.80;434463;1254;144631;-67
2023/03/05 08:44:03;;;;;;;12.10;7.50;;;;;;;-1.71;87.45;98725.02;434985;1255;141730;-68
2023/03/05 08:54:10;;;;;;;13.10;7.20;;;;;;;-1.56;87.62;98713.93;444710;1254;141355;-66
2023/03/05 09:04:16;;;;;;;10.60;6.80;;;;;;;-1.48;88.04;98704.95;443104;1254;144125;-67
2023/03/05 09:14:22;;;;;;;7.60;6.70;;;;;;;-1.38;88.85;98698.83;439036;1254;142883;-67
2023/03/05 09:24:28;;;;;;;7.30;5.10;;;;;;;-1.15;88.80;98686.48;434497;1254;142415;-66
2023/03/05 09:34:34;;;;;;;9.60;6.20;;;;;;;-1.02;88.88;98685.58;432373;1255;142343;-66
2023/03/05 09:44:47;;;;;;;6.80;5.00;;;;;;;-0.88;88.79;98679.47;434034;1255;141671;-66
2023/03/05 09:54:56;;;;;;;9.10;6.50;;;;;;;-0.68;89.08;98664.21;432434;1256;141412;-67
2023/03/05 10:05:12;;;;;;;8.70;6.70;;;;;;;-0.48;89.18;98655.47;446095;1254;142266;-67
2023/03/05 10:15:24;;;;;;;10.30;6.40;;;;;;;-0.34;89.23;98639.52;449111;1254;141943;-67
2023/03/05 10:25:48;;;;;;;9.70;7.80;;;;;;;-0.06;89.30;98622.73;448399;1254;141914;-65
2023/03/05 10:36:26;;;;;;;10.00;7.10;;;;;;;-0.08;89.29;98614.05;433648;1254;140934;-67
2023/03/05 10:46:35;;;;;;;10.60;6.40;;;;;;;-0.25;89.34;98601.21;432862;1254;200054;-67
2023/03/05 10:56:41;;;;;;;6.80;4.70;;;;;;;-0.44;89.27;98586.55;434364;1258;141805;-67
2023/03/05 11:06:46;;;;;;;8.30;6.40;;;;;;;-0.75;89.80;98579.05;437057;1254;141643;-67
2023/03/05 11:16:52;;;;;;;7.80;5.70;;;;;;;-0.65;90.22;98572.69;437270;1254;142429;-66
2023/03/05 11:26:59;;;;;;;7.40;6.60;;;;;;;-0.69;90.45;98567.65;446525;1254;142905;-66
2023/03/05 11:37:05;;;;;;;;;;;;;;;-0.65;90.47;98560.31;444824;1254;145234;-67
2023/03/05 11:47:23;;;;;;;11.60;7.30;;;;;;;-0.20;90.23;98550.48;449646;1254;128269;-67
2023/03/05 11:57:33;;;;;;;11.30;6.60;;;;;;;0.02;89.62;98543.13;449425;1254;144000;-66
2023/03/05 12:07:42;;;;;;;9.00;7.80;;;;;;;0.16;89.24;98538.63;448682;1254;143359;-67
2023/03/05 12:17:58;;;;;;;11.10;8.30;;;;;;;0.24;88.87;98534.88;449499;1254;142319;-65
2023/03/05 12:28:04;;;;;;;10.40;7.30;;;;;;;0.08;88.61;98527.94;448484;1254;142510;-65
2023/03/05 12:38:30;;;;;;;12.80;7.80;;;;;;;-0.04;89.12;98528.73;449320;1254;141784;-66
2023/03/05 12:48:42;;;;;;;;;;;;;;;0.04;89.07;98524.14;449449;1254;141948;-65
2023/03/05 12:58:52;;;;;;;10.20;7.70;;;;;;;-0.02;89.31;98520.90;449272;1254;184153;-65
2023/03/05 13:09:00;;;;;;;13.60;8.50;;;;;;;0.09;89.43;98517.21;443409;1254;141960;-68
2023/03/05 13:19:17;;;;;;;17.40;10.60;;;;;;;-0.06;89.33;98515.71;447451;1254;143202;-67
2023/03/05 13:29:26;;;;;;;14.10;8.20;;;;;;;-0.40;89.77;98519.52;448585;1255;145003;-67
2023/03/05 13:39:34;;;;;;;11.00;6.40;;;;;;;-0.35;89.94;98520.73;445458;1254;144177;-68
2023/03/05 13:49:40;;;;;;;8.90;5.00;;;;;;;-0.25;88.96;98517.27;432709;1257;142333;-65
2023/03/05 13:59:53;;;;;;;9.80;5.10;;;;;;;-0.23;88.71;98513.25;432632;1258;143149;-62
2023/03/05 14:10:01;;;;;;;10.90;4.80;;;;;;;-0.29;88.90;98516.20;442300;1254;142338;-63
2023/03/05 14:20:27;;;;;;;7.40;3.70;;;;;;;-0.35;88.92;98505.95;449290;1253;142092;-63
2023/03/05 14:30:35;;;;;;;7.10;4.00;;;;;;;-0.01;89.07;98500.04;449250;1255;143092;-63
2023/03/05 14:40:41;;;;;;;7.40;4.70;;;;;;;0.24;88.55;98497.02;448592;1254;142184;-63
2023/03/05 14:50:50;;;;;;;7.30;4.60;;;;;;;0.22;87.75;98500.72;449292;1254;142841;-63
2023/03/05 15:00:56;;;;;;;8.30;4.70;;;;;;;0.10;87.28;98502.02;441065;1258;141659;-63
2023/03/05 15:11:03;;;;;;;4.20;3.60;;;;;;;-0.27;87.37;98511.30;438634;1255;144870;-64
2023/03/05 15:21:08;;;;;;;5.60;3.60;;;;;;;-0.75;88.88;98510.45;449221;1254;142522;-67
2023/03/05 15:31:16;;;;;;;10.20;8.20;;;;;;;-0.99;89.62;98518.16;448507;1254;193512;-67
2023/03/05 15:41:22;;;;;;;9.10;7.50;;;;;;;-1.23;89.54;98514.32;443454;1256;143302;-66
2023/03/05 15:51:27;;;;;;;11.40;9.90;;;;;;;-1.46;89.64;98512.46;432131;1256;142590;-65
2023/03/05 16:01:33;;;;;;;12.70;10.70;;;;;;;-1.67;89.74;98519.81;442947;1255;145289;-66
2023/03/05 16:11:46;;;;;;;14.50;9.90;;;;;;;-1.93;89.67;98525.39;436643;1254;143652;-66
2023/03/05 16:21:52;;;;;;;13.90;10.30;;;;;;;-2.07;89.89;98527.19;448266;1255;142920;-67
2023/03/05 16:31:58;;;;;;;15.00;10.40;;;;;;;-2.17;90.16;98531.27;434806;1254;203235;-67
2023/03/05 16:42:07;;;;;;;15.90;11.30;;;;;;;-2.32;90.53;98543.70;443902;1254;142964;-66
2023/03/05 16:52:12;;;;;;;12.10;9.50;;;;;;;-2.51;90.86;98542.34;448525;1255;143874;-67
2023/03/05 17:02:24;;;;;;;15.90;11.10;;;;;;;-2.86;90.95;98546.15;448920;1254;142966;-66
2023/03/05 17:12:28;;;;;;;;;;;;;;;-3.13;91.71;98552.13;432939;1258;141889;-66
2023/03/05 17:22:34;;;;;;;13.10;9.30;;;;;;;-3.20;92.77;98549.41;432831;1258;133070;-68
2023/03/05 17:32:40;;;;;;;;;;;;;;;-3.09;93.43;98548.27;438749;1256;142051;-65
2023/03/05 17:42:44;;;;;;;;;;;;;;;-3.04;93.76;98550.05;437744;1258;134159;-65
2023/03/05 17:52:50;;;;;;;11.60;8.60;;;;;;;-3.00;94.35;98556.95;444456;1256;128342;-68
2023/03/05 18:02:57;;;;;;;12.10;8.80;;;;;;;-2.77;94.67;98557.90;449240;1254;143320;-68
2023/03/05 18:13:03;;;;;;;16.00;10.60;;;;;;;-2.64;94.20;98558.60;444123;1256;145095;-67
2023/03/05 18:23:08;;;;;;;;;;;;;;;-2.98;93.68;98557.41;442202;1255;145224;-66
2023/03/05 18:33:18;;;;;;;14.70;11.90;;;;;;;-3.46;93.28;98561.80;441787;1253;129135;-68
2023/03/05 18:43:25;;;;;;;18.60;10.00;;;;;;;-3.90;93.49;98564.02;443552;1258;143028;-67
2023/03/05 18:53:31;;;;;;;35.20;17.70;;;;;;;-4.26;93.58;98555.67;439608;1258;145058;-67
2023/03/05 19:03:37;;;;;;;23.40;15.40;;;;;;;-4.58;93.87;98545.71;448980;1258;142873;-68
2023/03/05 19:13:47;;;;;;;40.60;26.90;;;;;;;-4.60;94.37;98534.83;448350;1254;143334;-68
2023/03/05 19:23:54;;;;;;;62.00;35.80;;;;;;;-4.91;93.88;98546.32;446540;1254;157160;-68
2023/03/05 19:34:00;;;;;;;45.10;23.70;;;;;;;-5.26;94.04;98563.13;448388;1254;143298;-67
2023/03/05 19:44:07;;;;;;;33.60;20.00;;;;;;;-5.11;94.83;98548.36;443262;1254;142808;-67
2023/03/05 19:54:14;;;;;;;36.80;21.80;;;;;;;-5.36;94.22;98538.38;449181;1258;143577;-68
2023/03/05 20:04:24;;;;;;;40.00;24.10;;;;;;;-5.66;94.09;98546.83;448397;1256;142977;-68
2023/03/05 20:14:30;;;;;;;47.00;28.90;;;;;;;-6.01;94.16;98550.42;449235;1254;143109;-68
2023/03/05 20:24:36;;;;;;;68.40;35.80;;;;;;;-6.18;94.51;98546.56;449221;1254;142482;-67
2023/03/05 20:34:42;;;;;;;59.90;35.10;;;;;;;-6.36;94.54;98547.64;442378;1254;143260;-67
2023/03/05 20:44:47;;;;;;;66.10;36.50;;;;;;;-6.56;94.56;98546.85;435293;1258;151277;-67
2023/03/05 20:54:53;;;;;;;52.10;30.90;;;;;;;-6.77;94.57;98544.02;448373;1254;143111;-65
2023/03/05 21:04:59;;;;;;;53.40;34.60;;;;;;;-6.73;94.86;98535.63;449111;1255;144870;-65
2023/03/05 21:15:06;;;;;;;50.30;33.00;;;;;;;-6.64;94.96;98534.52;449217;1254;142770;-65
2023/03/05 21:25:19;;;;;;;45.60;28.60;;;;;;;-6.77;94.48;98527.00;448673;1254;143114;-66
2023/03/05 21:35:25;;;;;;;51.80;34.80;;;;;;;-6.95;94.21;98523.60;449351;1254;143701;-68
2023/03/05 21:45:31;;;;;;;52.50;37.00;;;;;;;-7.11;94.16;98520.70;446137;1254;143412;-67
2023/03/05 21:55:45;;;;;;;68.40;43.20;;;;;;;-7.29;94.06;98511.34;439806;1254;145692;-66
2023/03/05 22:05:51;;;;;;;57.20;38.40;;;;;;;-7.42;94.24;98505.84;435309;1254;142960;-66
2023/03/05 22:15:58;;;;;;;61.60;41.60;;;;;;;-7.61;94.09;98509.73;443544;1254;144149;-67
2023/03/05 22:26:06;;;;;;;53.90;37.70;;;;;;;-7.74;94.01;98505.42;449387;1253;143093;-67
2023/03/05 22:36:14;;;;;;;69.10;43.60;;;;;;;-7.93;93.60;98501.48;439843;1254;146634;-67
2023/03/05 22:46:21;;;;;;;67.30;43.90;;;;;;;-8.09;93.41;98501.23;448657;1254;144348;-67
2023/03/05 22:56:27;;;;;;;66.20;41.00;;;;;;;-8.21;93.47;98501.82;445597;1254;142750;-67
2023/03/05 23:06:33;;;;;;;59.70;39.40;;;;;;;-8.32;93.19;98503.73;442359;1254;142516;-67
2023/03/05 23:16:39;;;;;;;54.60;37.60;;;;;;;-8.45;93.00;98502.95;443984;1254;143651;-68
2023/03/05 23:26:44;;;;;;;57.80;38.60;;;;;;;-8.57;92.80;98496.91;432858;1254;142988;-67
2023/03/05 23:36:50;;;;;;;57.70;36.10;;;;;;;-8.72;92.76;98494.77;434311;1254;154821;-66
2023/03/05 23:46:56;;;;;;;60.30;39.00;;;;;;;-8.82;92.96;98495.99;433044;1258;145139;-68
2023/03/05 23:57:02;;;;;;;60.90;41.30;;;;;;;-8.87;93.23;98493.12;436429;1254;142084;-66
